Airport View

Enter AWOS ICAO identifier for current METAR.

ex. KFNL

KSLN 031553Z 00000KT 10SM CLR 26/19 A3010 RMK AO2 SLP177 T02560189

3 Jul 2020 16:30

Phone: 785-823-3402

Other Area AWOS: KFRI - KHUT - KCNK - KEWK

TAF KSLN 031137Z 0312/0412 VRB05KT P6SM VCSH BKN080 FM031600 11007KT P6SM SCT060 FM032100 08007KT P6SM SCT050 FM040500 10005KT P6SM FEW090